Spencer, MA (01562)

2:43 PM EDT on July 28, 2015 (GMT -0400)
Temple Valley | | Change Station
CLOSE
Current Station
Personal Weather Station
Location: Spencer, MA
Elevation: 881 ft
Nearby Weather Stations

Elev 881 ft 42.24 °N, 71.99 °W | Updated 9 seconds ago

Partly Cloudy
Partly Cloudy
83.5 °F
Feels Like 81 °F
N
3.8
Wind Variable Wind from WNW
Gusts 3.8 mph

Today
High -- | Low -- °F
--% Chance of Precip.
Yesterday
High -- | Low -- °F
Precip. -- in
5:36 AM 8:11 PM
Waxing Gibbous, 91% visible
Pressure 29.96 in
Visibility 10.0 miles
Clouds Scattered Clouds 4700 ft
Heat Index 81 °F
Dew Point 29 °F
Humidity 14%
Rainfall 0.00 in
Snow Depth Not available.
UV 0.0 out of 12
Pollen 4.90 out of 12
Air Quality Not available.
Flu Activity Not available.
METAR KORH 281754Z 29006KT 10SM SCT047 29/17 A2998 RMK AO2 SLP145 T02890172 10294 20200 58009

More Conditions Fewer Conditions

Pressure 29.96 in
Visibility 10.0 miles
Clouds Scattered Clouds 4700 ft
Heat Index 81 °F
Dew Point 29 °F
Humidity 14%
Rainfall 0.00 in
Snow Depth Not available.
UV 0.0 out of 12
Pollen 4.90 out of 12
Air Quality Not available.
Flu Activity Not available.
METAR KORH 281754Z 29006KT 10SM SCT047 29/17 A2998 RMK AO2 SLP145 T02890172 10294 20200 58009

More Conditions Fewer Conditions

10-Day Weather Forecast

×

Almanac

Astronomy

Jul. 28, 2015 Rise Set
Actual Time
Civil Twilight
Nautical Twilight
Astronomical Twilight
Moon
Length of Visible Light
Length of Day
Tomorrow will be .
, % of the Moon is Illuminated

Today's Extremes

State Highs State Lows

Community

WunderPhotos

Upload Photos

1,841,908 photos uploaded!

WunderBlogs® & News

Nearby

Air Quality

  Air Quality AQ Index Pollutant
Not available.

Snow Depth

Station Depth Elevation

Earthquake Activity

City Distance Mag. Time & Date
Minimum magnitude displayed is 2.5.

Coastal Water Temperatures

Place Temperature

Stations

Nearby Weather Stations

Station Location Temp. Windchill Dew Point Humidity Wind Precip. Elev Updated Type